Time;durP1;ratioP1;P1;durP2;ratioP2;P2;SDS_P1;SDS_P2;PMS_P1;PMS_P2;Temp;Humidity;BMP_temperature;BMP_pressure;BME280_temperature;BME280_humidity;BME280_pressure;Samples;Min_cycle;Max_cycle;Signal;HPM_P1;HPM_P2
2021/12/25 00:00:37;;;;;;;4.90;3.17;;;;;;;4.74;100.00;95173.16;4970603;28;20488;-71
2021/12/25 00:06:56;;;;;;;4.30;3.90;;;;;;;4.69;100.00;95162.88;4954933;28;20453;-72
2021/12/25 00:09:23;;;;;;;8.37;4.23;;;;;;;4.77;100.00;95165.75;4971760;28;20432;-72
2021/12/25 00:11:50;;;;;;;4.33;3.80;;;;;;;4.70;100.00;95177.50;4955863;28;20468;-72
2021/12/25 00:14:17;;;;;;;4.33;3.93;;;;;;;4.71;100.00;95176.41;4971382;28;20479;-72
2021/12/25 00:16:44;;;;;;;4.83;4.27;;;;;;;4.67;100.00;95172.91;4970409;28;20464;-71
2021/12/25 00:19:11;;;;;;;11.43;5.80;;;;;;;4.55;100.00;95162.34;4954968;28;20808;-72
2021/12/25 00:21:38;;;;;;;7.43;3.80;;;;;;;4.65;100.00;95169.06;4971552;28;20506;-71
2021/12/25 00:24:05;;;;;;;4.37;4.00;;;;;;;4.57;100.00;95154.94;4966050;28;20515;-72
2021/12/25 00:27:22;;;;;;;4.37;3.97;;;;;;;4.57;100.00;95162.78;5075516;28;20849;-71
2021/12/25 00:32:29;;;;;;;3.80;3.40;;;;;;;4.56;100.00;95171.72;5092783;28;20469;-71
2021/12/25 00:34:55;;;;;;;4.10;3.70;;;;;;;4.64;100.00;95188.47;5075188;28;20443;-71
2021/12/25 00:37:22;;;;;;;3.80;3.27;;;;;;;4.43;100.00;95162.25;5092033;28;20459;-71
2021/12/25 00:39:51;;;;;;;4.23;3.90;;;;;;;4.36;100.00;95152.25;5073004;28;20498;-72
2021/12/25 00:42:18;;;;;;;5.43;4.90;;;;;;;4.52;100.00;95160.34;5072796;28;20443;-71
2021/12/25 00:44:44;;;;;;;6.20;5.60;;;;;;;4.59;100.00;95170.31;5072932;28;20863;-71
2021/12/25 00:47:11;;;;;;;4.87;4.30;;;;;;;4.55;100.00;95172.03;5090951;28;20812;-71
2021/12/25 00:49:38;;;;;;;4.47;4.07;;;;;;;4.52;100.00;95160.34;5072759;28;20962;-72
2021/12/25 00:52:05;;;;;;;6.43;5.30;;;;;;;4.62;100.00;95173.06;5072698;28;20435;-71
2021/12/25 00:54:32;;;;;;;4.53;4.13;;;;;;;4.61;100.00;95162.91;5072429;28;20440;-71
2021/12/25 00:56:59;;;;;;;7.80;5.77;;;;;;;4.57;100.00;95154.94;5056243;28;20841;-71
2021/12/25 00:59:26;;;;;;;4.47;3.83;;;;;;;4.48;100.00;95142.97;5073085;28;20837;-71
2021/12/25 01:01:53;;;;;;;5.07;4.30;;;;;;;4.52;100.00;95154.34;5056564;28;20953;-72
2021/12/25 01:04:20;;;;;;;4.70;4.30;;;;;;;4.44;100.00;95148.09;5059582;28;20526;-71
2021/12/25 01:06:48;;;;;;;5.60;4.77;;;;;;;4.48;100.00;95151.59;5076499;28;20635;-71
2021/12/25 01:09:15;;;;;;;4.63;4.17;;;;;;;4.51;100.00;95158.81;5076289;28;20423;-71
2021/12/25 01:11:46;;;;;;;8.10;4.40;;;;;;;4.29;100.00;95164.31;5076333;28;21105;-72
2021/12/25 01:14:24;;;;;;;4.93;3.83;;;;;;;4.44;100.00;95187.34;5076065;28;20432;-71
2021/12/25 01:17:41;;;;;;;7.70;4.37;;;;;;;4.33;100.00;95179.06;5085610;28;20492;-71
2021/12/25 01:33:54;;;;;;;13.47;11.87;;;;;;;3.62;100.00;95185.88;5075601;28;20581;-71
2021/12/25 01:36:53;;;;;;;8.40;7.00;;;;;;;3.95;100.00;95207.03;5094371;28;20414;-71
2021/12/25 01:48:14;;;;;;;4.60;3.73;;;;;;;4.56;100.00;95218.84;5093226;28;20581;-71
2021/12/25 01:50:42;;;;;;;11.53;4.67;;;;;;;4.50;100.00;95198.38;5075149;28;20961;-71
2021/12/25 01:53:09;;;;;;;5.03;4.10;;;;;;;4.59;100.00;95210.34;5075057;28;20435;-72
2021/12/25 01:55:37;;;;;;;5.90;4.53;;;;;;;4.60;100.00;95211.13;5075031;28;20439;-71
2021/12/25 01:58:05;;;;;;;5.53;5.00;;;;;;;4.56;100.00;95203.13;5074933;28;20992;-71
2021/12/25 02:00:39;;;;;;;4.83;4.43;;;;;;;4.44;100.00;95187.34;5058319;28;20489;-72
2021/12/25 02:03:09;;;;;;;8.53;5.60;;;;;;;4.34;100.00;95185.81;5093040;28;20533;-72
2021/12/25 02:05:37;;;;;;;6.70;5.40;;;;;;;4.47;100.00;95199.78;5074727;28;20438;-72
2021/12/25 02:08:23;;;;;;;5.73;5.23;;;;;;;4.33;100.00;95184.28;5074677;28;20481;-72
2021/12/25 02:10:51;;;;;;;5.00;4.60;;;;;;;4.29;100.00;95196.47;5074784;28;20443;-72
2021/12/25 02:13:19;;;;;;;5.00;4.50;;;;;;;4.40;100.00;95195.03;5073780;28;20431;-72
2021/12/25 02:15:50;;;;;;;4.77;4.37;;;;;;;4.39;100.00;95184.88;5074488;28;20470;-72
2021/12/25 02:21:08;;;;;;;6.20;4.70;;;;;;;4.33;100.00;95197.38;5093105;28;20419;-72
2021/12/25 02:23:36;;;;;;;4.37;3.97;;;;;;;4.24;100.00;95203.72;5074428;28;20475;-72
2021/12/25 02:26:03;;;;;;;4.40;3.83;;;;;;;4.20;100.00;95176.66;5057787;28;20439;-72
2021/12/25 02:28:31;;;;;;;6.30;5.63;;;;;;;4.15;100.00;95193.28;5074268;28;20562;-71
2021/12/25 02:31:02;;;;;;;7.00;4.80;;;;;;;4.04;100.00;95192.84;5074404;28;20443;-72
2021/12/25 02:33:29;;;;;;;8.23;4.83;;;;;;;3.87;100.00;95179.81;5074240;28;20466;-72
2021/12/25 02:35:56;;;;;;;4.87;4.30;;;;;;;3.73;100.00;95168.75;5074137;28;20518;-72
2021/12/25 02:38:24;;;;;;;4.13;3.73;;;;;;;3.79;100.00;95173.53;5074016;28;21005;-72
2021/12/25 02:40:51;;;;;;;5.17;4.67;;;;;;;3.90;100.00;95154.91;5057619;28;20526;-72
2021/12/25 02:43:19;;;;;;;4.47;4.07;;;;;;;3.86;100.00;95163.34;5074096;28;20463;-72
2021/12/25 02:45:46;;;;;;;7.33;5.60;;;;;;;3.81;100.00;95173.22;5057608;28;20450;-72
2021/12/25 02:48:16;;;;;;;9.53;5.07;;;;;;;3.59;100.00;95155.13;5057470;28;20459;-72
2021/12/25 02:50:45;;;;;;;4.83;4.33;;;;;;;3.45;100.00;95182.16;5057773;28;20973;-72
2021/12/25 02:53:13;;;;;;;4.53;4.13;;;;;;;3.33;100.00;95194.31;5073984;28;20447;-72
2021/12/25 02:55:42;;;;;;;4.00;3.70;;;;;;;3.21;100.00;95200.16;5074218;28;20526;-71
2021/12/25 02:58:10;;;;;;;3.93;3.60;;;;;;;3.15;100.00;95201.38;5074899;28;20550;-71
2021/12/25 03:00:44;;;;;;;8.40;4.60;;;;;;;2.99;100.00;95184.63;5074306;28;20443;-71
2021/12/25 03:03:12;;;;;;;8.03;4.97;;;;;;;3.05;100.00;95196.44;5091926;28;20442;-72
2021/12/25 03:05:39;;;;;;;5.13;4.73;;;;;;;2.99;100.00;95190.63;5073647;28;20970;-71
2021/12/25 03:08:08;;;;;;;5.90;5.33;;;;;;;3.12;100.00;95204.63;5073531;28;20463;-71
2021/12/25 03:10:45;;;;;;;4.70;4.30;;;;;;;3.16;100.00;95195.84;5073730;28;20467;-71
2021/12/25 03:15:45;;;;;;;5.17;4.57;;;;;;;3.15;100.00;95181.25;5073528;28;20481;-72
2021/12/25 03:18:14;;;;;;;4.60;4.20;;;;;;;3.17;100.00;95186.94;5073512;28;20462;-72
2021/12/25 03:20:45;;;;;;;6.47;4.53;;;;;;;3.04;100.00;95161.75;5056949;28;20450;-72
2021/12/25 03:23:20;;;;;;;7.23;4.47;;;;;;;3.22;100.00;95186.81;5073209;28;20440;-71
2021/12/25 03:25:49;;;;;;;5.90;4.73;;;;;;;3.36;100.00;95186.66;5073003;28;20470;-72
2021/12/25 03:28:17;;;;;;;4.90;4.30;;;;;;;3.34;100.00;95185.41;5056681;28;20467;-72
2021/12/25 03:30:45;;;;;;;4.67;4.07;;;;;;;3.28;100.00;95176.97;5073195;28;20442;-71
2021/12/25 03:33:17;;;;;;;4.90;4.20;;;;;;;3.30;100.00;95181.88;5073399;28;20475;-72
2021/12/25 03:35:44;;;;;;;4.80;4.20;;;;;;;3.24;100.00;95182.03;5056648;28;20477;-71
2021/12/25 03:38:14;;;;;;;5.60;5.03;;;;;;;3.04;100.00;95184.47;5091311;28;20866;-71
2021/12/25 03:40:42;;;;;;;4.53;4.13;;;;;;;2.90;100.00;95176.78;5073178;28;20903;-72
2021/12/25 03:43:09;;;;;;;5.93;5.33;;;;;;;2.80;100.00;95164.78;5073086;28;20428;-72
2021/12/25 03:45:36;;;;;;;4.33;3.73;;;;;;;3.10;100.00;95184.03;5073020;28;20463;-72
2021/12/25 03:48:27;;;;;;;6.37;4.20;;;;;;;3.02;100.00;95158.69;5072980;28;20459;-71
2021/12/25 03:59:07;;;;;;;5.47;4.80;;;;;;;3.03;100.00;95170.66;5072897;28;20427;-71
2021/12/25 04:06:51;;;;;;;7.93;5.20;;;;;;;2.88;100.00;95171.88;5072959;28;20450;-71
2021/12/25 04:09:30;;;;;;;6.77;5.57;;;;;;;2.80;100.00;95159.56;5072827;28;20485;-71
2021/12/25 04:12:01;;;;;;;10.20;5.30;;;;;;;2.92;100.00;95170.19;5072911;28;20504;-71
2021/12/25 04:14:30;;;;;;;6.97;6.27;;;;;;;2.94;100.00;95182.94;5072836;28;20446;-71
2021/12/25 04:16:57;;;;;;;7.77;5.47;;;;;;;2.80;100.00;95156.19;5072809;28;20470;-72
2021/12/25 04:19:25;;;;;;;7.33;6.10;;;;;;;2.83;100.00;95160.81;5072874;28;20435;-72
2021/12/25 04:21:56;;;;;;;9.33;6.23;;;;;;;2.96;100.00;95176.34;5072647;28;20435;-72
2021/12/25 04:24:24;;;;;;;7.33;5.03;;;;;;;2.89;100.00;95162.19;5072737;28;20542;-72
2021/12/25 04:26:52;;;;;;;8.60;6.67;;;;;;;2.84;100.00;95150.06;5072699;28;20461;-72
2021/12/25 04:47:47;;;;;;;7.53;6.07;;;;;;;2.89;100.00;95194.28;5076463;28;20874;-72
2021/12/25 05:01:54;;;;;;;10.27;7.93;;;;;;;1.96;100.00;95198.88;5075875;28;20443;-72
2021/12/25 05:04:46;;;;;;;9.90;8.33;;;;;;;1.81;100.00;95197.41;5075976;28;20463;-72
2021/12/25 05:07:21;;;;;;;9.07;8.17;;;;;;;1.70;100.00;95188.28;5060534;28;20463;-72
2021/12/25 05:09:48;;;;;;;10.90;8.70;;;;;;;1.74;100.00;95199.69;5059446;28;20980;-73
2021/12/25 05:12:15;;;;;;;8.47;6.97;;;;;;;1.61;100.00;95187.50;5059091;28;20436;-73
2021/12/25 05:14:42;;;;;;;8.23;7.10;;;;;;;1.71;100.00;95190.59;5075693;28;20440;-72
2021/12/25 05:17:11;;;;;;;7.60;6.77;;;;;;;1.68;100.00;95186.00;5075666;28;21039;-73
2021/12/25 05:19:39;;;;;;;8.30;7.00;;;;;;;1.75;100.00;95188.97;5075691;28;20786;-73
2021/12/25 05:22:06;;;;;;;8.87;7.10;;;;;;;1.69;100.00;95186.75;5075854;28;20435;-73
2021/12/25 05:24:34;;;;;;;7.93;6.57;;;;;;;1.75;100.00;95190.78;5075721;28;20532;-73
2021/12/25 05:27:01;;;;;;;8.53;6.80;;;;;;;1.80;100.00;95203.69;5093959;28;20455;-73
2021/12/25 05:29:31;;;;;;;7.97;5.87;;;;;;;1.68;100.00;95188.59;5059337;28;20443;-73
2021/12/25 05:31:58;;;;;;;8.30;6.13;;;;;;;1.75;100.00;95191.56;5075585;28;20992;-73
2021/12/25 05:34:54;;;;;;;8.73;6.43;;;;;;;1.75;100.00;95207.19;5062598;28;20438;-73
2021/12/25 05:37:44;;;;;;;9.00;7.60;;;;;;;1.73;100.00;95205.94;5070851;28;20884;-73
2021/12/25 05:40:23;;;;;;;6.00;5.13;;;;;;;1.70;100.00;95199.47;5075433;28;20431;-73
2021/12/25 05:42:51;;;;;;;4.83;4.33;;;;;;;1.57;100.00;95196.94;5075397;28;20439;-73
2021/12/25 05:45:21;;;;;;;5.90;4.63;;;;;;;1.71;100.00;95215.88;5075397;28;20890;-73
2021/12/25 05:47:56;;;;;;;5.60;5.07;;;;;;;1.66;100.00;95197.78;5075012;28;21013;-73
2021/12/25 05:50:40;;;;;;;6.77;5.20;;;;;;;1.54;100.00;95187.91;5075301;28;20466;-73
2021/12/25 05:53:27;;;;;;;5.90;4.40;;;;;;;1.67;100.00;95207.91;5079018;28;20439;-73
2021/12/25 05:56:13;;;;;;;6.33;4.93;;;;;;;1.52;100.00;95197.84;5093447;28;20539;-73
2021/12/25 05:58:59;;;;;;;4.27;3.87;;;;;;;1.46;100.00;95202.38;5093370;28;20437;-73
2021/12/25 06:01:54;;;;;;;6.33;4.33;;;;;;;1.57;100.00;95215.94;5074928;28;20477;-73
2021/12/25 06:04:24;;;;;;;6.03;4.50;;;;;;;1.51;100.00;95219.75;5074902;28;20463;-73
2021/12/25 06:06:51;;;;;;;5.60;3.90;;;;;;;1.33;100.00;95198.00;5058489;28;20870;-73
2021/12/25 06:09:19;;;;;;;5.33;4.50;;;;;;;1.48;100.00;95221.09;5074797;28;20450;-73
2021/12/25 06:11:46;;;;;;;6.73;4.97;;;;;;;1.30;100.00;95216.81;5074892;28;20501;-73
2021/12/25 06:14:21;;;;;;;6.73;4.43;;;;;;;1.31;100.00;95223.56;5074735;28;20451;-73
2021/12/25 06:17:01;;;;;;;5.57;4.97;;;;;;;1.18;100.00;95209.50;5074652;28;20475;-73
2021/12/25 06:19:52;;;;;;;5.77;4.80;;;;;;;1.34;100.00;95222.22;5070108;28;20956;-73
2021/12/25 06:22:34;;;;;;;4.47;4.03;;;;;;;1.36;100.00;95225.28;5074841;28;20446;-73
2021/12/25 06:25:37;;;;;;;5.43;4.40;;;;;;;1.18;100.00;95219.16;5030296;28;20461;-73
2021/12/25 06:28:19;;;;;;;5.10;4.60;;;;;;;1.38;100.00;95238.78;5070591;28;20546;-73
2021/12/25 06:31:04;;;;;;;6.47;4.73;;;;;;;1.24;100.00;95225.03;5074508;28;20431;-73
2021/12/25 06:33:49;;;;;;;6.67;5.33;;;;;;;0.54;100.00;95137.81;5092818;28;20461;-73
2021/12/25 06:36:36;;;;;;;7.07;4.97;;;;;;;1.20;100.00;95235.25;5091845;28;20435;-73
2021/12/25 06:39:16;;;;;;;6.33;5.73;;;;;;;1.25;100.00;95226.56;5074233;28;20450;-73
2021/12/25 06:42:09;;;;;;;14.07;11.43;;;;;;;1.42;100.00;95243.09;5088324;28;20812;-73
2021/12/25 06:44:36;;;;;;;10.17;9.17;;;;;;;1.52;100.00;95262.94;5074074;28;20459;-73
2021/12/25 06:47:03;;;;;;;5.30;4.43;;;;;;;1.67;100.00;95273.03;5074018;28;20528;-73
2021/12/25 06:49:32;;;;;;;5.40;4.90;;;;;;;1.59;100.00;95278.91;5057986;28;20469;-73
2021/12/25 06:52:29;;;;;;;5.60;5.10;;;;;;;1.45;100.00;95255.53;5074641;28;20435;-73
2021/12/25 06:55:14;;;;;;;5.80;5.30;;;;;;;1.34;100.00;95254.22;5092516;28;20411;-73
2021/12/25 06:58:07;;;;;;;4.50;4.10;;;;;;;1.30;100.00;95278.53;5052984;28;20486;-73
2021/12/25 07:00:33;;;;;;;4.10;3.80;;;;;;;1.01;100.00;95261.41;5073376;28;20439;-73
2021/12/25 07:03:03;;;;;;;5.03;3.87;;;;;;;0.95;100.00;95267.03;5057679;28;20516;-73
2021/12/25 07:05:49;;;;;;;4.60;4.10;;;;;;;0.88;100.00;95257.75;5076896;28;20968;-73
2021/12/25 07:08:32;;;;;;;4.67;4.27;;;;;;;0.85;100.00;95273.19;5073686;28;20456;-73
2021/12/25 07:11:10;;;;;;;6.00;5.50;;;;;;;0.66;100.00;95286.28;5073684;28;20489;-73
2021/12/25 07:14:03;;;;;;;5.03;4.53;;;;;;;0.48;100.00;95289.72;5069295;28;20439;-73
2021/12/25 07:16:58;;;;;;;4.70;4.00;;;;;;;0.15;100.00;95266.41;5078059;28;20467;-73
2021/12/25 07:19:43;;;;;;;3.67;3.23;;;;;;;0.07;100.00;95271.47;5076839;28;20430;-74
2021/12/25 07:22:45;;;;;;;3.93;3.53;;;;;;;0.29;100.00;95295.00;4990237;28;20447;-76
2021/12/25 07:25:20;;;;;;;4.70;2.83;;;;;;;0.20;100.00;95292.28;5046097;28;20538;-76
2021/12/25 07:28:07;;;;;;;3.67;3.43;;;;;;;-0.02;100.00;95271.34;5060167;28;20467;-76
2021/12/25 07:30:34;;;;;;;3.90;3.33;;;;;;;0.09;100.00;95293.50;5073484;28;20439;-76
2021/12/25 07:33:01;;;;;;;3.40;3.00;;;;;;;0.05;100.00;95284.75;5073903;28;20491;-74
2021/12/25 07:35:28;;;;;;;3.63;3.33;;;;;;;0.07;100.00;95303.41;5056917;28;20463;-74
2021/12/25 07:37:55;;;;;;;4.30;3.30;;;;;;;-0.20;100.00;95275.53;5073320;28;20455;-74
2021/12/25 07:40:22;;;;;;;3.73;3.43;;;;;;;-0.23;100.00;95283.13;5073229;28;20861;-74
2021/12/25 07:42:49;;;;;;;5.07;3.90;;;;;;;-0.23;100.00;95281.28;5073324;28;20455;-74
2021/12/25 07:45:34;;;;;;;6.13;4.57;;;;;;;-0.19;100.00;95295.25;5091756;28;20449;-74
2021/12/25 07:48:02;;;;;;;5.47;4.97;;;;;;;-0.24;100.00;95289.38;5073568;28;20989;-74
2021/12/25 07:50:32;;;;;;;3.93;3.50;;;;;;;-0.20;100.00;95308.53;5073287;28;20942;-74
2021/12/25 07:53:00;;;;;;;3.60;3.30;;;;;;;-0.15;100.00;95311.78;5091561;28;20428;-74
2021/12/25 07:55:32;;;;;;;3.10;2.90;;;;;;;-0.16;100.00;95322.47;5056798;28;20427;-74
2021/12/25 07:58:03;;;;;;;3.77;3.07;;;;;;;-0.24;100.00;95303.13;5073193;28;20873;-74
2021/12/25 08:00:30;;;;;;;3.30;3.00;;;;;;;-0.17;100.00;95313.13;5073097;28;20500;-74
2021/12/25 08:02:57;;;;;;;2.70;2.50;;;;;;;-0.07;100.00;95328.59;5073368;28;20435;-74
2021/12/25 08:05:23;;;;;;;1.93;1.83;;;;;;;-0.09;100.00;95326.25;5073363;28;20647;-74
2021/12/25 08:07:50;;;;;;;2.60;2.40;;;;;;;-0.08;100.00;95340.78;5073190;28;21283;-74
2021/12/25 08:10:19;;;;;;;3.10;2.83;;;;;;;-0.09;100.00;95330.69;5073347;28;20467;-74
2021/12/25 08:12:48;;;;;;;3.40;3.10;;;;;;;-0.03;100.00;95338.13;5093555;28;20580;-75
2021/12/25 08:15:18;;;;;;;3.63;2.73;;;;;;;-0.20;100.00;95314.47;5077219;28;20972;-74
2021/12/25 08:17:45;;;;;;;4.20;3.90;;;;;;;-0.08;100.00;95329.63;5095434;28;20970;-74
2021/12/25 08:20:32;;;;;;;4.23;3.83;;;;;;;-0.03;100.00;95332.91;5095731;28;20413;-74
2021/12/25 08:23:17;;;;;;;4.60;4.20;;;;;;;-0.05;100.00;95335.03;5095804;28;20460;-74
2021/12/25 08:26:04;;;;;;;6.00;5.40;;;;;;;-0.07;100.00;95342.34;5095754;28;20445;-74
2021/12/25 08:28:31;;;;;;;5.07;4.57;;;;;;;-0.09;100.00;95348.88;5095349;28;21077;-74
2021/12/25 08:31:16;;;;;;;8.77;6.13;;;;;;;-0.10;100.00;95340.31;5095766;28;20419;-75
2021/12/25 08:34:04;;;;;;;9.67;7.33;;;;;;;-0.05;100.00;95353.22;5094614;28;20435;-75
2021/12/25 08:36:49;;;;;;;7.77;6.97;;;;;;;-0.11;100.00;95345.78;5080545;28;20446;-75
2021/12/25 08:39:15;;;;;;;7.40;6.40;;;;;;;-0.11;100.00;95348.38;5076973;28;20439;-74
2021/12/25 08:41:43;;;;;;;5.60;5.10;;;;;;;-0.07;100.00;95352.72;5076750;28;20874;-73
2021/12/25 08:44:31;;;;;;;7.33;6.00;;;;;;;-0.28;100.00;95337.72;5076669;28;20431;-74
2021/12/25 08:46:59;;;;;;;6.40;4.50;;;;;;;-0.25;100.00;95348.31;5076627;28;20467;-73
2021/12/25 08:49:29;;;;;;;5.27;4.50;;;;;;;-0.12;100.00;95360.59;5060169;28;20976;-74
2021/12/25 08:51:58;;;;;;;3.93;3.63;;;;;;;-0.14;100.00;95354.91;5094819;28;20427;-74
2021/12/25 08:54:25;;;;;;;4.13;3.80;;;;;;;-0.15;100.00;95347.38;5059815;28;20439;-74
2021/12/25 08:56:52;;;;;;;4.73;4.23;;;;;;;-0.21;100.00;95349.31;5076771;28;20958;-74
2021/12/25 08:59:19;;;;;;;4.30;3.90;;;;;;;-0.28;100.00;95333.28;5076325;28;20803;-73
2021/12/25 09:01:46;;;;;;;3.17;2.90;;;;;;;-0.31;100.00;95336.44;5076479;28;20482;-74
2021/12/25 09:04:13;;;;;;;3.33;3.03;;;;;;;-0.26;100.00;95341.59;5076393;28;20518;-73
2021/12/25 09:06:41;;;;;;;2.97;2.77;;;;;;;-0.18;100.00;95355.75;5094524;28;20562;-73
2021/12/25 09:09:08;;;;;;;3.57;3.23;;;;;;;-0.19;100.00;95362.78;5059813;28;21011;-75
2021/12/25 09:11:36;;;;;;;4.30;3.33;;;;;;;-0.31;100.00;95360.59;5076202;28;20442;-75
2021/12/25 09:14:04;;;;;;;2.80;2.60;;;;;;;-0.31;100.00;95363.19;5094474;28;20484;-75
2021/12/25 09:16:31;;;;;;;3.20;3.00;;;;;;;-0.21;100.00;95361.50;5076222;28;20432;-75
2021/12/25 09:18:59;;;;;;;3.70;2.87;;;;;;;-0.19;100.00;95364.59;5094296;28;20946;-75
2021/12/25 09:21:26;;;;;;;3.70;3.40;;;;;;;-0.23;100.00;95359.19;5076003;28;20435;-73
2021/12/25 09:23:53;;;;;;;3.87;3.57;;;;;;;-0.36;100.00;95337.31;5075550;28;20514;-73
2021/12/25 09:26:20;;;;;;;3.10;2.43;;;;;;;-0.22;100.00;95365.94;5094077;28;20455;-75
2021/12/25 09:28:47;;;;;;;3.50;3.00;;;;;;;-0.16;100.00;95369.22;5059374;28;20540;-75
2021/12/25 09:31:15;;;;;;;3.47;3.17;;;;;;;-0.39;100.00;95356.03;5059401;28;20466;-73
2021/12/25 09:33:42;;;;;;;3.00;2.80;;;;;;;-0.12;100.00;95365.81;5059422;28;20442;-74
2021/12/25 09:36:14;;;;;;;2.10;2.00;;;;;;;-0.18;100.00;95366.13;5076712;28;20416;-75
2021/12/25 09:38:41;;;;;;;2.87;2.67;;;;;;;-0.27;100.00;95360.78;5093832;28;20485;-75
2021/12/25 09:41:08;;;;;;;2.30;2.20;;;;;;;-0.22;100.00;95378.91;5093958;28;20454;-75
2021/12/25 09:43:34;;;;;;;3.27;2.97;;;;;;;-0.35;100.00;95372.59;5093693;28;20538;-75
2021/12/25 09:46:01;;;;;;;2.37;2.20;;;;;;;-0.34;100.00;95365.56;5075437;28;20543;-75
2021/12/25 09:48:28;;;;;;;2.27;2.17;;;;;;;-0.38;100.00;95362.78;5075409;28;20468;-75
2021/12/25 09:50:55;;;;;;;3.00;2.80;;;;;;;-0.20;100.00;95376.81;5075514;28;21022;-75
2021/12/25 09:53:23;;;;;;;2.40;2.20;;;;;;;-0.17;100.00;95378.84;5075440;28;20439;-73
2021/12/25 09:55:53;;;;;;;3.57;3.27;;;;;;;-0.34;100.00;95362.97;5075570;28;20867;-73
2021/12/25 09:58:20;;;;;;;2.97;2.77;;;;;;;-0.09;100.00;95377.44;5075132;28;20467;-74
2021/12/25 10:00:49;;;;;;;3.27;3.07;;;;;;;-0.34;100.00;95368.94;5075177;28;20447;-74
2021/12/25 10:03:22;;;;;;;2.83;2.63;;;;;;;-0.25;100.00;95379.50;5093666;28;20446;-75
2021/12/25 10:05:51;;;;;;;3.33;3.07;;;;;;;-0.24;100.00;95354.28;5093692;28;20467;-75
2021/12/25 10:08:25;;;;;;;3.50;3.20;;;;;;;-0.46;100.00;95337.44;5074960;28;20463;-75
2021/12/25 10:11:02;;;;;;;13.83;2.63;;;;;;;-0.31;100.00;95372.81;5075188;28;20470;-75
2021/12/25 10:13:41;;;;;;;3.60;3.30;;;;;;;-0.15;100.00;95376.72;5074907;28;20493;-75
2021/12/25 10:16:26;;;;;;;3.03;2.83;;;;;;;-0.42;100.00;95345.44;5074914;28;20485;-75
2021/12/25 10:19:10;;;;;;;2.70;2.50;;;;;;;-0.10;100.00;95389.66;5075107;28;20519;-75
2021/12/25 10:21:37;;;;;;;2.73;2.60;;;;;;;-0.06;100.00;95382.84;5074937;28;20420;-75
2021/12/25 10:24:16;;;;;;;2.80;2.60;;;;;;;-0.28;100.00;95364.44;5074867;28;20844;-73
2021/12/25 10:26:46;;;;;;;3.60;3.30;;;;;;;-0.02;100.00;95376.03;5075265;28;20443;-75
2021/12/25 10:29:29;;;;;;;3.57;3.27;;;;;;;-0.10;100.00;95379.28;5074830;28;20432;-75
2021/12/25 10:31:58;;;;;;;3.50;3.20;;;;;;;-0.21;100.00;95387.47;5074734;28;20484;-75
2021/12/25 10:34:28;;;;;;;2.23;2.03;;;;;;;-0.16;100.00;95375.19;5073661;28;21288;-75
2021/12/25 10:37:06;;;;;;;3.30;3.07;;;;;;;-0.18;100.00;95387.69;5074828;28;20459;-75
2021/12/25 10:39:33;;;;;;;2.93;2.60;;;;;;;-0.25;100.00;95376.88;5074610;28;20427;-75
2021/12/25 10:42:11;;;;;;;4.03;3.27;;;;;;;0.02;100.00;95391.06;5073993;28;20427;-76
2021/12/25 10:44:41;;;;;;;3.33;2.90;;;;;;;-0.06;100.00;95367.25;5057823;28;20423;-75
2021/12/25 10:47:15;;;;;;;3.40;2.77;;;;;;;0.12;100.00;95386.47;5073866;28;20520;-76
2021/12/25 10:49:55;;;;;;;5.90;3.27;;;;;;;-0.17;100.00;95357.28;5057889;28;20442;-76
2021/12/25 10:52:29;;;;;;;2.37;2.23;;;;;;;-0.03;100.00;95368.50;5074175;28;20853;-76
2021/12/25 10:54:59;;;;;;;2.40;2.20;;;;;;;-0.03;100.00;95377.06;5092490;28;20418;-76
2021/12/25 10:57:30;;;;;;;5.83;2.80;;;;;;;-0.41;100.00;95324.38;5092389;28;20446;-76
2021/12/25 10:59:57;;;;;;;2.70;2.50;;;;;;;-0.17;100.00;95378.06;5092194;28;20420;-74
2021/12/25 11:02:36;;;;;;;3.70;3.23;;;;;;;0.03;100.00;95395.22;5073850;28;20534;-76
2021/12/25 11:05:27;;;;;;;3.43;3.23;;;;;;;-0.25;100.00;95355.34;5073922;28;20424;-74
2021/12/25 11:08:13;;;;;;;3.30;3.00;;;;;;;0.02;100.00;95391.84;5064956;28;20507;-74
2021/12/25 11:10:57;;;;;;;4.03;3.63;;;;;;;0.11;100.00;95392.72;5057482;28;20842;-74
2021/12/25 11:13:33;;;;;;;6.80;6.07;;;;;;;0.16;100.00;95386.69;5074085;28;20799;-73
2021/12/25 11:16:11;;;;;;;10.40;8.67;;;;;;;0.20;100.00;95387.66;5073927;28;20471;-76
2021/12/25 11:19:11;;;;;;;5.23;4.73;;;;;;;0.19;100.00;95381.72;5074104;28;20517;-75
2021/12/25 11:21:44;;;;;;;2.93;2.73;;;;;;;0.26;100.00;95373.53;5092063;28;20473;-75
2021/12/25 11:24:20;;;;;;;3.17;2.90;;;;;;;0.09;100.00;95368.84;5074043;28;20431;-74
2021/12/25 11:26:53;;;;;;;3.47;3.10;;;;;;;0.15;100.00;95369.56;5056999;28;20471;-74
2021/12/25 11:29:23;;;;;;;2.70;2.50;;;;;;;0.25;100.00;95367.56;5073793;28;20515;-73
2021/12/25 11:31:52;;;;;;;2.90;2.70;;;;;;;0.12;100.00;95365.69;5073683;28;20843;-73
2021/12/25 11:34:19;;;;;;;2.90;2.57;;;;;;;0.05;100.00;95364.53;5073920;28;20431;-75
2021/12/25 11:36:50;;;;;;;3.00;2.80;;;;;;;-0.06;100.00;95375.06;5091802;28;20914;-75
2021/12/25 11:39:22;;;;;;;4.67;4.17;;;;;;;-0.16;100.00;95359.59;5073733;28;20431;-75
2021/12/25 11:41:54;;;;;;;2.90;2.60;;;;;;;0.00;100.00;95383.56;5073537;28;20469;-75
2021/12/25 11:44:31;;;;;;;3.30;2.77;;;;;;;-0.04;100.00;95380.72;5073476;28;20435;-75
2021/12/25 11:46:58;;;;;;;4.20;3.80;;;;;;;-0.01;100.00;95382.75;5056371;28;20475;-75
2021/12/25 11:49:25;;;;;;;3.60;3.30;;;;;;;-0.27;100.00;95347.03;5056819;28;21107;-75
2021/12/25 11:51:52;;;;;;;3.70;3.40;;;;;;;-0.19;100.00;95370.56;5073677;28;20423;-75
2021/12/25 11:55:18;;;;;;;2.90;2.70;;;;;;;-0.32;100.00;95387.63;5056818;28;20447;-75
2021/12/25 11:59:49;;;;;;;2.70;2.50;;;;;;;-0.22;100.00;95368.53;5091529;28;20472;-75
2021/12/25 12:02:39;;;;;;;3.50;3.20;;;;;;;-0.10;100.00;95353.28;5073390;28;20467;-75
2021/12/25 12:05:29;;;;;;;3.03;2.73;;;;;;;0.00;100.00;95365.38;5073341;28;20428;-75
2021/12/25 12:08:09;;;;;;;3.23;2.93;;;;;;;-0.11;100.00;95363.97;5073378;28;20490;-75
2021/12/25 12:11:01;;;;;;;3.17;2.87;;;;;;;-0.13;100.00;95368.69;5071262;28;20874;-75
2021/12/25 12:14:22;;;;;;;2.87;2.67;;;;;;;-0.13;100.00;95364.25;5006355;28;20442;-75
2021/12/25 12:16:59;;;;;;;4.00;3.70;;;;;;;0.02;100.00;95365.09;5091473;28;20443;-75
2021/12/25 12:19:41;;;;;;;3.20;2.90;;;;;;;-0.12;100.00;95365.81;5073077;28;21048;-75
2021/12/25 12:22:08;;;;;;;3.80;3.50;;;;;;;-0.10;100.00;95374.06;5073190;28;20439;-75
2021/12/25 12:27:07;;;;;;;3.77;2.80;;;;;;;-0.54;100.00;95376.22;5072995;28;20977;-75
2021/12/25 12:29:37;;;;;;;2.87;2.60;;;;;;;-0.56;100.00;95407.63;5091024;28;21122;-75
2021/12/25 12:32:05;;;;;;;2.77;2.57;;;;;;;-0.60;100.00;95417.03;5072904;28;20469;-75
2021/12/25 12:34:35;;;;;;;3.17;2.87;;;;;;;-0.97;100.00;95381.38;5072984;28;20830;-75
2021/12/25 12:37:14;;;;;;;3.60;3.20;;;;;;;-0.72;100.00;95422.63;5073002;28;20504;-75
2021/12/25 12:40:06;;;;;;;3.53;3.20;;;;;;;-0.69;100.00;95424.66;5072925;28;20450;-75
2021/12/25 12:42:43;;;;;;;3.20;3.00;;;;;;;-0.71;100.00;95418.97;5072774;28;20943;-75
2021/12/25 12:45:32;;;;;;;5.73;3.47;;;;;;;-0.73;100.00;95413.28;5073077;28;20450;-75
2021/12/25 12:48:14;;;;;;;2.97;2.67;;;;;;;-0.74;100.00;95416.94;5072884;28;20467;-75
2021/12/25 12:50:55;;;;;;;3.70;3.30;;;;;;;-0.57;100.00;95431.28;5091064;28;20910;-75
2021/12/25 12:53:24;;;;;;;4.40;2.70;;;;;;;-0.61;100.00;95434.44;5090958;28;20411;-75
2021/12/25 12:55:54;;;;;;;2.63;2.43;;;;;;;-0.66;100.00;95438.91;5072602;28;20472;-75
2021/12/25 12:58:26;;;;;;;2.30;2.10;;;;;;;-0.73;100.00;95428.09;5092071;28;20451;-75
2021/12/25 13:01:08;;;;;;;2.43;2.23;;;;;;;-0.87;100.00;95417.59;5094621;28;20439;-75
2021/12/25 13:03:36;;;;;;;2.50;2.30;;;;;;;-1.04;100.00;95404.28;5094585;28;20422;-75
2021/12/25 13:06:12;;;;;;;3.00;2.77;;;;;;;-0.79;100.00;95424.00;5076180;28;20466;-75
2021/12/25 13:08:42;;;;;;;3.30;3.00;;;;;;;-1.06;100.00;95409.75;5076340;28;20451;-75
2021/12/25 13:11:21;;;;;;;2.37;2.17;;;;;;;-1.06;100.00;95414.19;5076224;28;20427;-75
2021/12/25 13:13:53;;;;;;;2.60;2.27;;;;;;;-1.02;100.00;95446.28;5076293;28;20423;-75
2021/12/25 13:16:24;;;;;;;2.67;2.40;;;;;;;-1.12;100.00;95428.22;5076339;28;21085;-75
2021/12/25 13:18:54;;;;;;;2.77;2.57;;;;;;;-1.10;100.00;95445.06;5076498;28;20784;-75
2021/12/25 13:21:24;;;;;;;2.53;2.33;;;;;;;-1.28;100.00;95428.38;5094464;28;20534;-75